Impacts METAR Board
IDs:

KISM - Kissimmee Muni, FL, US

Updated at: 0200 UTC 12 May 2021
Potential Impact None Slight Moderate High
Time 11/14Z 11/15Z 11/16Z 11/17Z 11/18Z 11/19Z 11/20Z 11/21Z 11/22Z 11/23Z 12/00Z 12/01Z 12/02Z
Temp83 86 86 89 89 89 90 84 85 84 81 79 77
Dewpt70 68 72 66 68 68 67 68 68 69 71 69 70
Altim30.13 30.12 30.11 30.09 30.06 30.05 30.04 30.04 30.04 30.05 30.06 30.07 30.07
VIS10 10 10 10 10 10 10 10 10 10 10 10 10
CIG-- -- -- -- 55 -- -- 60 -- 110 120 -- --
CoverCLRCLRFEWFEWBKNFEWSCTBKNCLRBKNBKNCLRCLR
FltCatVFRVFRVFRVFRVFRVFRVFRVFRVFRVFRVFRVFRVFR
WX--------------------------
WDir02501401901301900350350705090100
WSpd0 3 6 4 7 6 6 9 7 13 6 7 7
WGst-- -- -- -- -- -- -- -- -- -- -- -- --
Raw hourly METARs
KISM 111356Z 00000KT 10SM CLR 28/21 A3013 RMK AO2 SLP201 T02830211 PNO $
KISM 111456Z 25003KT 10SM CLR 30/20 A3012 RMK AO2 SLP198 6//// T03000200 50005 PNO $
KISM 111556Z 14006KT 10SM FEW035 30/22 A3011 RMK AO2 SLP197 T03000222 PNO $
KISM 111656Z 19004KT 10SM FEW039 32/19 A3009 RMK AO2 SLP188 T03170189 PNO $
KISM 111756Z 13007KT 090V170 10SM BKN055 32/20 A3006 RMK AO2 SLP179 6//// T03170200 10322 20239 58019 PNO $
KISM 111856Z 19006KT 10SM FEW060 32/20 A3005 RMK AO2 SLP174 T03170200 PNO $
KISM 111956Z VRB06KT 10SM SCT060 32/19 A3004 RMK AO2 LTG DSNT NW SLP171 T03220194 PNO $
KISM 112056Z 35009KT 10SM BKN060 BKN100 29/20 A3004 RMK AO2 SLP171 6//// T02890200 55008 PNO $
KISM 112156Z 35007KT 10SM CLR 29/20 A3004 RMK AO2 SLP173 T02940200 PNO $
KISM 112256Z 07013KT 10SM SCT070 BKN110 29/21 A3005 RMK AO2 LTG DSNT E AND NW SLP173 T02890206 PNO $
KISM 112356Z 05006KT 10SM SCT070 BKN120 27/22 A3006 RMK AO2 SLP180 6//// T02720217 10322 20272 53009 PNO $
KISM 120056Z 09007KT 10SM CLR 26/21 A3007 RMK AO2 SLP181 T02610206 PNO $
KISM 120156Z AUTO 10007KT 10SM CLR 25/21 A3007 RMK AO2 SLP183 T02500211 PNO $



Page loaded:  02:12 UTC  |   07:12 PM Pacific  |   08:12 PM Mountain  |   09:12 PM Central  |   10:12 PM Eastern

 

ADVISORIES

FORECASTS

FORECASTS

OBSERVATIONS

USER TOOLS

ABOUT US